Time;durP1;ratioP1;P1;durP2;ratioP2;P2;SDS_P1;SDS_P2;PMS_P1;PMS_P2;Temp;Humidity;BMP_temperature;BMP_pressure;BME280_temperature;BME280_humidity;BME280_pressure;Samples;Min_cycle;Max_cycle;Signal;HPM_P1;HPM_P2
2022/09/26 00:02:00;;;;;;;7.20;4.70;;;18.80;92.20;;;;;;4973294;28;20487;-76
2022/09/26 00:04:27;;;;;;;9.88;4.70;;;18.80;92.30;;;;;;4973239;28;20019;-73
2022/09/26 00:06:55;;;;;;;8.82;4.65;;;18.80;92.30;;;;;;4973056;28;20452;-74
2022/09/26 00:09:22;;;;;;;8.32;4.53;;;18.80;92.30;;;;;;4973266;28;20054;-72
2022/09/26 00:11:49;;;;;;;7.32;4.63;;;18.80;92.20;;;;;;4973305;28;20027;-72
2022/09/26 00:14:22;;;;;;;8.75;4.35;;;18.90;92.30;;;;;;4973092;28;20042;-73
2022/09/26 00:16:47;;;;;;;9.60;4.45;;;18.80;92.30;;;;;;4975248;28;20035;-72
2022/09/26 00:19:13;;;;;;;9.60;4.75;;;18.80;92.30;;;;;;4976993;28;20460;-72
2022/09/26 00:21:39;;;;;;;10.80;4.85;;;18.80;92.20;;;;;;4976943;28;20050;-72
2022/09/26 00:24:05;;;;;;;6.70;4.38;;;18.80;92.20;;;;;;4976843;28;20042;-74
2022/09/26 00:26:35;;;;;;;8.93;4.40;;;18.80;92.20;;;;;;4976918;28;20018;-73
2022/09/26 00:29:06;;;;;;;9.73;5.00;;;18.80;92.10;;;;;;4976823;28;20110;-75
2022/09/26 00:31:34;;;;;;;6.78;4.53;;;18.80;92.10;;;;;;4976833;28;20055;-72
2022/09/26 00:34:01;;;;;;;6.72;4.43;;;18.80;92.40;;;;;;4976605;28;20033;-73
2022/09/26 00:36:27;;;;;;;6.38;3.97;;;18.80;92.10;;;;;;4976683;28;20057;-74
2022/09/26 00:38:53;;;;;;;7.03;3.95;;;18.80;92.30;;;;;;4976701;28;20453;-73
2022/09/26 00:41:18;;;;;;;7.20;4.68;;;18.80;92.30;;;;;;4976580;28;20110;-74
2022/09/26 00:43:50;;;;;;;8.27;5.07;;;18.80;92.20;;;;;;4976353;28;20484;-73
2022/09/26 00:46:33;;;;;;;8.30;5.00;;;18.80;92.30;;;;;;4976489;28;20027;-73
2022/09/26 00:49:02;;;;;;;8.02;4.88;;;18.70;92.40;;;;;;4976588;28;20030;-72
2022/09/26 00:51:28;;;;;;;8.93;4.80;;;18.70;92.30;;;;;;4976644;28;20492;-73
2022/09/26 00:53:54;;;;;;;7.40;4.50;;;18.70;92.30;;;;;;4976394;28;20070;-75
2022/09/26 00:56:29;;;;;;;8.27;4.45;;;18.60;92.30;;;;;;4976684;28;20042;-74
2022/09/26 00:59:01;;;;;;;6.72;4.32;;;18.60;92.40;;;;;;4976573;28;20070;-73
2022/09/26 01:01:28;;;;;;;7.35;3.92;;;18.50;92.40;;;;;;4976513;28;20049;-72
2022/09/26 01:03:54;;;;;;;6.60;3.97;;;18.50;92.50;;;;;;4976345;28;20026;-74
2022/09/26 01:06:21;;;;;;;7.47;4.30;;;18.50;92.50;;;;;;4976282;28;20031;-74
2022/09/26 01:08:59;;;;;;;8.32;4.28;;;18.50;92.50;;;;;;4976076;28;20101;-73
2022/09/26 01:11:26;;;;;;;7.10;4.00;;;18.50;92.40;;;;;;4976282;28;20045;-75
2022/09/26 01:13:53;;;;;;;7.80;4.00;;;18.50;92.40;;;;;;4975948;28;20026;-73
2022/09/26 01:16:19;;;;;;;6.95;4.03;;;18.50;92.50;;;;;;4975996;28;20031;-74
2022/09/26 01:18:46;;;;;;;5.65;3.30;;;18.50;92.50;;;;;;4975774;28;20493;-71
2022/09/26 01:21:43;;;;;;;6.57;3.65;;;18.50;92.40;;;;;;4975845;28;20061;-73
2022/09/26 01:24:27;;;;;;;7.53;3.22;;;18.50;92.50;;;;;;4975728;28;20117;-72
2022/09/26 01:27:05;;;;;;;5.85;3.50;;;18.50;92.50;;;;;;4975662;28;20031;-73
2022/09/26 01:29:55;;;;;;;6.50;3.30;;;18.50;92.50;;;;;;4975646;28;20050;-72
2022/09/26 01:32:48;;;;;;;6.65;2.78;;;18.50;92.60;;;;;;4975876;28;20038;-74
2022/09/26 01:35:51;;;;;;;5.32;3.25;;;18.60;92.50;;;;;;4975585;28;20065;-75
2022/09/26 01:38:38;;;;;;;6.47;3.40;;;18.60;92.50;;;;;;4975454;28;20396;-75
2022/09/26 01:41:31;;;;;;;5.78;3.38;;;18.50;92.40;;;;;;4975693;28;20043;-74
2022/09/26 01:44:41;;;;;;;5.82;3.22;;;18.50;92.40;;;;;;4975427;28;20018;-73
2022/09/26 01:47:26;;;;;;;4.68;2.90;;;18.50;92.40;;;;;;4970892;28;20038;-74
2022/09/26 01:50:22;;;;;;;11.13;3.25;;;18.50;92.30;;;;;;4975521;28;20031;-74
2022/09/26 01:52:52;;;;;;;6.32;3.47;;;18.50;92.50;;;;;;4975440;28;20023;-73
2022/09/26 01:55:34;;;;;;;7.15;3.63;;;18.40;92.40;;;;;;4975343;28;20058;-74
2022/09/26 01:58:12;;;;;;;5.40;3.42;;;18.40;92.60;;;;;;4975405;28;20074;-74
2022/09/26 02:00:40;;;;;;;7.45;3.25;;;18.40;92.60;;;;;;4975336;28;20098;-74
2022/09/26 02:03:11;;;;;;;7.05;3.20;;;18.40;92.60;;;;;;4975232;28;20073;-74
2022/09/26 02:05:45;;;;;;;5.07;3.10;;;18.40;92.60;;;;;;4975180;28;20023;-73
2022/09/26 02:08:35;;;;;;;5.55;2.90;;;18.40;92.60;;;;;;4975100;28;20074;-75
2022/09/26 02:11:09;;;;;;;5.72;2.97;;;18.40;92.60;;;;;;4959641;28;20454;-75
2022/09/26 02:13:44;;;;;;;4.85;2.83;;;18.40;92.50;;;;;;4957621;28;20464;-74
2022/09/26 02:16:31;;;;;;;4.53;2.88;;;18.40;92.60;;;;;;4974809;28;20040;-73
2022/09/26 02:19:04;;;;;;;6.47;2.80;;;18.30;92.60;;;;;;4974916;28;20062;-74
2022/09/26 02:21:30;;;;;;;4.93;2.70;;;18.40;92.60;;;;;;4975057;28;20029;-74
2022/09/26 02:23:56;;;;;;;5.97;2.38;;;18.30;92.60;;;;;;4974638;28;20034;-74
2022/09/26 02:26:22;;;;;;;7.38;2.95;;;18.30;92.60;;;;;;4974689;28;20465;-73
2022/09/26 02:28:48;;;;;;;4.78;2.58;;;18.40;92.60;;;;;;4974834;28;20027;-75
2022/09/26 02:31:19;;;;;;;5.55;2.70;;;18.40;92.60;;;;;;4975026;28;20109;-74
2022/09/26 02:33:50;;;;;;;6.15;2.88;;;18.40;92.50;;;;;;4974570;28;20117;-73
2022/09/26 02:36:18;;;;;;;4.40;2.53;;;18.40;92.70;;;;;;4974668;28;20046;-74
2022/09/26 02:38:44;;;;;;;4.45;2.80;;;18.40;92.60;;;;;;4974267;28;20030;-73
2022/09/26 02:41:35;;;;;;;4.95;2.65;;;18.40;92.60;;;;;;4973976;28;20026;-73
2022/09/26 02:44:20;;;;;;;4.32;2.38;;;18.30;92.60;;;;;;4974540;28;20034;-73
2022/09/26 02:47:26;;;;;;;6.88;2.75;;;18.30;92.80;;;;;;4974605;28;20027;-73
2022/09/26 02:50:16;;;;;;;5.88;2.85;;;18.30;92.60;;;;;;4974373;28;20063;-72
2022/09/26 02:52:50;;;;;;;6.93;2.72;;;18.30;92.60;;;;;;4974355;28;20388;-73
2022/09/26 02:55:38;;;;;;;5.38;2.70;;;18.30;92.60;;;;;;4974303;28;20042;-73
2022/09/26 02:58:09;;;;;;;4.78;2.45;;;18.30;92.70;;;;;;4974321;28;20065;-73
2022/09/26 03:00:54;;;;;;;7.05;2.40;;;18.20;92.70;;;;;;4974211;28;20033;-73
2022/09/26 03:03:50;;;;;;;4.30;2.47;;;18.30;92.70;;;;;;4974322;28;20027;-73
2022/09/26 03:06:21;;;;;;;4.40;2.50;;;18.20;92.70;;;;;;4973314;28;20047;-75
2022/09/26 03:08:50;;;;;;;3.90;2.40;;;18.30;92.70;;;;;;4975629;28;20058;-73
2022/09/26 03:11:20;;;;;;;3.95;2.50;;;18.20;92.60;;;;;;4974496;28;20147;-72
2022/09/26 03:13:48;;;;;;;4.35;2.50;;;18.20;92.80;;;;;;4974173;28;20051;-73
2022/09/26 03:16:15;;;;;;;4.75;2.25;;;18.20;92.90;;;;;;4974013;28;20109;-73
2022/09/26 03:18:52;;;;;;;4.47;2.45;;;18.20;92.90;;;;;;4974012;28;20027;-73
2022/09/26 03:21:18;;;;;;;3.50;2.20;;;18.20;92.90;;;;;;4973932;28;20019;-74
2022/09/26 03:23:44;;;;;;;5.75;2.50;;;18.20;93.00;;;;;;4974118;28;20081;-76
2022/09/26 03:26:14;;;;;;;4.70;2.28;;;18.20;93.00;;;;;;4974118;28;20076;-73
2022/09/26 03:28:40;;;;;;;5.57;2.40;;;18.20;93.10;;;;;;4974122;28;20179;-77
2022/09/26 03:31:06;;;;;;;5.22;2.60;;;18.20;93.00;;;;;;4974041;28;20476;-74
2022/09/26 03:33:33;;;;;;;4.18;2.60;;;18.20;93.00;;;;;;4974020;28;20034;-74
2022/09/26 03:35:58;;;;;;;4.03;2.42;;;18.20;93.10;;;;;;4974019;28;20054;-74
2022/09/26 03:38:25;;;;;;;8.55;2.70;;;18.20;93.00;;;;;;4973885;28;20426;-74
2022/09/26 03:40:51;;;;;;;5.40;2.60;;;18.20;93.10;;;;;;4973821;28;20019;-73
2022/09/26 03:43:17;;;;;;;5.45;3.50;;;18.20;93.00;;;;;;4973696;28;20031;-74
2022/09/26 03:45:42;;;;;;;5.38;2.70;;;18.20;93.00;;;;;;4973846;28;20333;-74
2022/09/26 03:48:08;;;;;;;4.45;2.63;;;18.20;93.10;;;;;;4973696;28;20031;-75
2022/09/26 03:50:34;;;;;;;5.03;2.70;;;18.20;93.00;;;;;;4973259;28;20325;-73
2022/09/26 03:53:00;;;;;;;6.97;2.55;;;18.30;93.10;;;;;;4973563;28;20126;-73
2022/09/26 03:55:27;;;;;;;5.95;2.60;;;18.30;93.10;;;;;;4973603;28;20022;-74
2022/09/26 03:57:52;;;;;;;3.88;2.70;;;18.20;93.10;;;;;;4973438;28;20035;-74
2022/09/26 04:00:18;;;;;;;5.93;2.70;;;18.20;93.10;;;;;;4973565;28;20023;-74
2022/09/26 04:02:44;;;;;;;5.72;2.80;;;18.20;93.20;;;;;;4973526;28;20376;-71
2022/09/26 04:05:09;;;;;;;4.78;2.80;;;18.20;93.20;;;;;;4973640;28;20035;-74
2022/09/26 04:07:35;;;;;;;7.32;3.03;;;18.30;93.20;;;;;;4973457;28;20077;-74
2022/09/26 04:10:02;;;;;;;4.45;2.88;;;18.30;93.10;;;;;;4956012;28;20118;-75
2022/09/26 04:12:27;;;;;;;3.92;2.40;;;18.20;93.10;;;;;;4973502;28;20093;-73
2022/09/26 04:14:53;;;;;;;8.23;3.92;;;18.30;93.10;;;;;;4973360;28;20027;-75
2022/09/26 04:17:19;;;;;;;4.80;2.95;;;18.30;93.00;;;;;;4973351;28;20039;-74
2022/09/26 04:19:44;;;;;;;6.10;2.80;;;18.40;93.00;;;;;;4973165;28;20061;-72
2022/09/26 04:22:10;;;;;;;5.30;2.90;;;18.40;92.90;;;;;;4973231;28;20057;-75
2022/09/26 04:24:36;;;;;;;4.70;3.03;;;18.40;92.90;;;;;;4955894;28;20494;-73
2022/09/26 04:27:02;;;;;;;9.68;2.83;;;18.40;92.90;;;;;;4973172;28;20069;-73
2022/09/26 04:29:28;;;;;;;6.38;2.97;;;18.40;92.80;;;;;;4973260;28;20034;-75
2022/09/26 04:31:54;;;;;;;5.75;2.63;;;18.40;92.80;;;;;;4973110;28;20388;-75
2022/09/26 04:34:23;;;;;;;5.78;2.58;;;18.40;92.80;;;;;;4973105;28;20042;-74
2022/09/26 04:36:51;;;;;;;5.25;2.53;;;18.50;92.80;;;;;;4972813;28;20369;-73
2022/09/26 04:39:17;;;;;;;4.60;2.60;;;18.50;92.70;;;;;;4972689;28;20431;-73
2022/09/26 04:41:42;;;;;;;6.07;2.80;;;18.50;92.70;;;;;;4955729;28;20125;-74
2022/09/26 04:44:09;;;;;;;6.78;3.13;;;18.50;92.70;;;;;;4972950;28;20038;-74
2022/09/26 04:46:35;;;;;;;8.48;3.35;;;18.50;92.60;;;;;;4973117;28;20384;-73
2022/09/26 04:49:02;;;;;;;5.43;2.80;;;18.50;92.70;;;;;;4972947;28;20031;-72
2022/09/26 04:51:30;;;;;;;5.28;2.72;;;18.50;92.70;;;;;;4973249;28;20083;-74
2022/09/26 04:53:56;;;;;;;7.80;2.90;;;18.50;92.70;;;;;;4972932;28;20038;-72
2022/09/26 04:56:25;;;;;;;4.82;2.70;;;18.40;92.70;;;;;;4972952;28;20384;-73
2022/09/26 04:58:53;;;;;;;5.15;2.80;;;18.40;92.70;;;;;;4972810;28;20077;-73
2022/09/26 05:01:20;;;;;;;4.68;2.95;;;18.40;92.70;;;;;;4972889;28;20039;-73
2022/09/26 05:03:45;;;;;;;5.93;2.75;;;18.40;92.90;;;;;;4974842;28;20130;-74
2022/09/26 05:06:12;;;;;;;6.47;2.78;;;18.50;92.60;;;;;;4976428;28;20133;-74
2022/09/26 05:08:45;;;;;;;5.65;3.00;;;18.50;92.60;;;;;;4976216;28;20137;-73
2022/09/26 05:11:11;;;;;;;12.25;4.82;;;18.50;92.60;;;;;;4976440;28;20376;-73
2022/09/26 05:13:37;;;;;;;9.15;3.97;;;18.50;92.60;;;;;;4976259;28;20027;-73
2022/09/26 05:16:05;;;;;;;5.68;3.10;;;18.50;92.90;;;;;;4976161;28;20381;-72
2022/09/26 05:18:32;;;;;;;6.82;2.95;;;18.50;92.50;;;;;;4976271;28;20555;-74
2022/09/26 05:20:59;;;;;;;7.55;2.90;;;18.50;92.50;;;;;;4975960;28;20342;-74
2022/09/26 05:26:23;;;;;;;6.22;3.45;;;18.60;92.60;;;;;;4975839;28;20092;-73
2022/09/26 05:29:05;;;;;;;4.97;3.00;;;18.60;92.50;;;;;;4976031;28;20440;-74
2022/09/26 05:31:36;;;;;;;8.30;3.13;;;18.70;92.50;;;;;;4975877;28;20153;-72
2022/09/26 05:34:03;;;;;;;7.70;3.08;;;18.70;92.40;;;;;;4975209;28;20517;-75
2022/09/26 05:36:29;;;;;;;5.90;3.25;;;18.70;92.40;;;;;;4975933;28;20023;-73
2022/09/26 05:38:55;;;;;;;8.70;3.65;;;18.70;92.30;;;;;;4975957;28;20039;-71
2022/09/26 05:41:21;;;;;;;8.85;3.28;;;18.70;92.30;;;;;;4979011;28;20487;-69
2022/09/26 05:43:47;;;;;;;9.90;4.13;;;18.80;92.30;;;;;;4979636;28;20435;-68
2022/09/26 05:46:14;;;;;;;7.53;3.17;;;18.80;92.30;;;;;;4975807;28;20101;-70
2022/09/26 05:48:40;;;;;;;12.02;7.10;;;18.80;92.20;;;;;;4980683;28;20030;-70
2022/09/26 05:51:12;;;;;;;9.43;4.38;;;18.80;92.20;;;;;;4986538;28;20026;-68
2022/09/26 05:53:48;;;;;;;9.30;3.72;;;18.80;92.30;;;;;;4995283;28;20109;-70
2022/09/26 05:56:16;;;;;;;7.72;3.45;;;18.80;92.10;;;;;;4995084;28;20233;-69
2022/09/26 05:58:42;;;;;;;9.82;3.78;;;18.80;92.10;;;;;;4976922;28;20129;-69
2022/09/26 06:01:13;;;;;;;7.45;3.20;;;18.80;92.10;;;;;;4988892;28;20117;-68
2022/09/26 06:03:45;;;;;;;6.72;3.30;;;18.90;92.10;;;;;;4979025;28;20052;-68
2022/09/26 06:06:16;;;;;;;7.10;3.33;;;18.80;92.10;;;;;;4984351;28;20094;-69
2022/09/26 06:08:43;;;;;;;5.65;3.20;;;18.90;92.10;;;;;;4994060;28;20491;-72
2022/09/26 06:11:16;;;;;;;13.15;3.22;;;19.00;92.00;;;;;;4994591;28;20014;-70
2022/09/26 06:13:44;;;;;;;6.75;3.75;;;19.00;91.90;;;;;;4994278;28;20031;-70
2022/09/26 06:16:13;;;;;;;8.43;3.55;;;19.10;91.80;;;;;;4988737;28;20030;-72
2022/09/26 06:18:42;;;;;;;9.40;3.40;;;19.10;91.90;;;;;;4966881;28;20050;-71
2022/09/26 06:21:11;;;;;;;6.18;3.30;;;19.00;91.80;;;;;;4977288;28;20121;-70
2022/09/26 06:23:37;;;;;;;10.18;4.03;;;19.00;91.70;;;;;;4993953;28;20158;-72
2022/09/26 06:26:07;;;;;;;11.20;3.92;;;19.10;91.80;;;;;;4986192;28;20027;-70
2022/09/26 06:28:33;;;;;;;8.38;3.45;;;19.10;91.70;;;;;;4988452;28;20047;-69
2022/09/26 06:30:59;;;;;;;11.60;3.60;;;19.10;91.70;;;;;;4994372;28;20084;-70
2022/09/26 06:33:25;;;;;;;7.13;3.45;;;19.10;91.70;;;;;;4986522;28;20022;-68
2022/09/26 06:36:01;;;;;;;10.10;3.72;;;19.10;91.80;;;;;;4974615;28;20511;-71
2022/09/26 06:38:27;;;;;;;9.48;3.63;;;19.20;91.80;;;;;;4986743;28;20069;-71
2022/09/26 06:40:53;;;;;;;8.77;4.10;;;19.20;91.70;;;;;;4984456;28;20491;-70
2022/09/26 06:43:19;;;;;;;6.55;3.90;;;19.20;91.70;;;;;;4974709;28;20030;-71
2022/09/26 06:45:47;;;;;;;10.40;3.95;;;19.20;91.60;;;;;;4974616;28;20024;-71
2022/09/26 06:48:14;;;;;;;8.52;3.60;;;19.20;91.70;;;;;;4974895;28;20031;-69
2022/09/26 06:50:40;;;;;;;8.60;3.97;;;19.20;91.70;;;;;;4974335;28;20019;-70
2022/09/26 06:53:06;;;;;;;9.77;4.38;;;19.30;91.60;;;;;;4974789;28;20380;-72
2022/09/26 06:55:31;;;;;;;9.27;4.18;;;19.30;91.60;;;;;;4974198;28;20023;-72
2022/09/26 06:57:57;;;;;;;17.33;4.57;;;19.30;91.70;;;;;;4979662;28;20125;-71
2022/09/26 07:00:24;;;;;;;12.88;4.03;;;19.40;91.70;;;;;;4986193;28;20423;-71
2022/09/26 07:03:09;;;;;;;10.13;4.30;;;19.40;91.60;;;;;;4974366;28;20062;-70
2022/09/26 07:05:34;;;;;;;12.35;3.80;;;19.40;91.70;;;;;;4974230;28;20030;-70
2022/09/26 07:08:01;;;;;;;11.18;4.20;;;19.30;91.70;;;;;;4974177;28;20334;-71
2022/09/26 07:10:29;;;;;;;13.88;4.32;;;19.30;91.70;;;;;;4974182;28;20021;-68
2022/09/26 07:13:02;;;;;;;14.18;4.50;;;19.40;91.90;;;;;;4974123;28;20026;-68
2022/09/26 07:15:30;;;;;;;10.57;4.28;;;19.40;92.00;;;;;;4983588;28;20027;-69
2022/09/26 07:18:00;;;;;;;10.20;4.78;;;19.40;92.00;;;;;;4981356;28;20085;-70
2022/09/26 07:20:31;;;;;;;9.50;4.57;;;19.40;92.10;;;;;;4973692;28;20404;-69
2022/09/26 07:23:03;;;;;;;11.63;5.63;;;19.50;92.10;;;;;;4973847;28;20034;-68
2022/09/26 07:25:30;;;;;;;12.00;5.40;;;19.60;92.30;;;;;;4973065;28;20380;-73
2022/09/26 07:27:56;;;;;;;13.05;5.50;;;19.60;92.10;;;;;;4973794;28;20030;-68
2022/09/26 07:30:22;;;;;;;13.02;7.43;;;19.60;92.20;;;;;;4973759;28;20019;-68
2022/09/26 07:32:48;;;;;;;17.85;7.05;;;19.60;92.20;;;;;;4973773;28;20225;-68
2022/09/26 07:35:16;;;;;;;16.85;6.25;;;19.70;92.20;;;;;;4978608;28;20023;-67
2022/09/26 07:37:43;;;;;;;15.63;6.85;;;19.70;92.20;;;;;;4992237;28;20524;-68
2022/09/26 07:40:09;;;;;;;21.42;7.05;;;19.70;92.10;;;;;;4993146;28;20152;-70
2022/09/26 07:42:37;;;;;;;21.15;7.88;;;19.80;92.30;;;;;;4992590;28;20039;-68
2022/09/26 07:45:04;;;;;;;23.63;10.27;;;19.70;92.30;;;;;;4993408;28;20375;-69
2022/09/26 07:50:18;;;;;;;17.45;7.95;;;19.70;92.70;;;;;;4993011;28;20032;-69
2022/09/26 07:52:46;;;;;;;17.15;6.28;;;19.70;92.70;;;;;;4993314;28;20085;-68
2022/09/26 07:55:19;;;;;;;27.40;8.82;;;19.60;92.90;;;;;;4993318;28;20030;-69
2022/09/26 07:57:48;;;;;;;49.95;13.82;;;19.60;93.10;;;;;;4984151;28;20047;-68
2022/09/26 08:00:18;;;;;;;30.15;11.68;;;19.60;93.10;;;;;;4974280;28;20368;-78
2022/09/26 08:02:45;;;;;;;38.72;13.18;;;19.70;93.40;;;;;;4973631;28;20039;-72
2022/09/26 08:05:20;;;;;;;34.88;11.90;;;19.70;93.30;;;;;;4973396;28;20110;-72
2022/09/26 08:07:48;;;;;;;14.35;7.03;;;19.70;93.20;;;;;;4974609;28;20047;-65
2022/09/26 08:10:20;;;;;;;22.70;9.25;;;19.80;93.30;;;;;;4975228;28;20095;-67
2022/09/26 08:12:47;;;;;;;22.35;10.15;;;19.80;93.40;;;;;;4976861;28;20023;-73
2022/09/26 08:15:13;;;;;;;15.07;8.05;;;19.80;93.50;;;;;;4973396;28;20035;-70
2022/09/26 08:17:39;;;;;;;13.93;6.18;;;19.80;93.60;;;;;;4973408;28;20049;-69
2022/09/26 08:20:06;;;;;;;20.08;7.88;;;19.80;93.60;;;;;;4973229;28;20023;-68
2022/09/26 08:22:32;;;;;;;23.13;9.85;;;19.80;93.80;;;;;;4973408;28;20404;-67
2022/09/26 08:24:59;;;;;;;29.65;11.30;;;19.70;94.00;;;;;;4972874;28;20023;-68
2022/09/26 08:27:25;;;;;;;25.58;9.25;;;19.70;94.10;;;;;;4972872;28;20027;-68
2022/09/26 08:29:51;;;;;;;14.38;7.15;;;19.70;94.40;;;;;;4973094;28;20034;-67
2022/09/26 08:32:19;;;;;;;24.17;9.77;;;19.70;94.40;;;;;;4975575;28;20026;-70
2022/09/26 08:34:45;;;;;;;13.48;6.53;;;19.70;94.40;;;;;;4975546;28;20023;-71
2022/09/26 08:37:11;;;;;;;17.60;7.53;;;19.80;94.70;;;;;;4978867;28;20038;-70
2022/09/26 08:39:38;;;;;;;23.05;8.55;;;19.80;94.80;;;;;;4959225;28;20070;-72
2022/09/26 08:42:34;;;;;;;30.55;12.00;;;19.80;94.70;;;;;;4976550;28;20030;-69
2022/09/26 08:45:00;;;;;;;16.40;7.78;;;19.80;95.00;;;;;;4976613;28;20372;-67
2022/09/26 08:47:49;;;;;;;17.92;6.82;;;19.70;95.10;;;;;;4976614;28;20039;-70
2022/09/26 08:50:33;;;;;;;27.50;9.88;;;19.70;95.30;;;;;;4976365;28;20030;-68
2022/09/26 08:53:22;;;;;;;;;;;19.70;95.40;;;;;;4976880;28;20042;-70
2022/09/26 08:55:49;;;;;;;15.23;6.55;;;19.70;95.70;;;;;;4970790;28;19906;-71
2022/09/26 08:58:21;;;;;;;22.23;9.40;;;19.70;95.50;;;;;;4976656;28;20039;-71
2022/09/26 09:00:53;;;;;;;18.58;6.40;;;19.70;95.60;;;;;;4976345;28;20035;-71
2022/09/26 09:03:28;;;;;;;21.40;8.02;;;19.70;95.90;;;;;;4975999;28;20019;-68
2022/09/26 09:06:05;;;;;;;52.95;18.98;;;19.70;96.10;;;;;;4976190;28;20015;-68
2022/09/26 09:08:55;;;;;;;18.80;8.52;;;19.80;96.20;;;;;;4976133;28;20059;-68
2022/09/26 09:11:42;;;;;;;30.33;13.20;;;19.80;96.30;;;;;;4975665;28;20047;-72
2022/09/26 09:14:08;;;;;;;37.28;14.77;;;19.80;96.40;;;;;;4976001;28;20026;-67
2022/09/26 09:16:39;;;;;;;19.30;7.90;;;19.80;96.40;;;;;;4975687;28;20065;-68
2022/09/26 09:19:14;;;;;;;14.63;8.20;;;19.80;96.50;;;;;;4983567;28;20510;-68
2022/09/26 09:21:40;;;;;;;15.40;7.72;;;19.80;96.80;;;;;;4995318;28;20031;-71
2022/09/26 09:24:40;;;;;;;16.13;7.40;;;19.80;97.00;;;;;;4995092;28;20130;-70
2022/09/26 09:27:11;;;;;;;20.42;10.80;;;19.80;97.10;;;;;;4955355;28;20069;-67
2022/09/26 09:29:57;;;;;;;16.48;8.57;;;19.80;97.20;;;;;;4995548;28;20420;-68
2022/09/26 09:32:31;;;;;;;26.75;9.80;;;19.80;97.20;;;;;;4995787;28;20030;-70
2022/09/26 09:34:57;;;;;;;17.50;8.95;;;19.90;97.30;;;;;;4995217;28;20033;-72
2022/09/26 09:37:36;;;;;;;30.60;9.85;;;20.00;97.20;;;;;;4994914;28;20030;-66
2022/09/26 09:40:10;;;;;;;19.25;8.18;;;20.00;97.30;;;;;;4994951;28;20026;-67
2022/09/26 09:42:47;;;;;;;17.35;9.02;;;20.10;97.40;;;;;;4994830;28;20045;-67
2022/09/26 09:45:49;;;;;;;24.13;9.32;;;20.00;97.30;;;;;;4994787;28;20081;-68
2022/09/26 09:48:15;;;;;;;21.33;9.95;;;20.00;97.40;;;;;;4970343;28;20045;-68
2022/09/26 09:50:50;;;;;;;22.42;9.00;;;20.00;97.70;;;;;;4994773;28;20102;-69
2022/09/26 09:53:34;;;;;;;21.73;9.43;;;20.00;97.80;;;;;;4994633;28;20185;-71
2022/09/26 09:56:15;;;;;;;35.10;13.77;;;20.00;97.90;;;;;;4995101;28;20034;-72
2022/09/26 09:59:02;;;;;;;28.17;13.77;;;20.00;97.80;;;;;;4994606;28;20116;-70
2022/09/26 10:01:36;;;;;;;38.80;16.00;;;20.10;97.90;;;;;;4994899;28;20018;-69
2022/09/26 10:04:28;;;;;;;;;;;20.10;98.10;;;;;;4995010;28;20026;-69
2022/09/26 10:06:54;;;;;;;29.77;11.75;;;20.10;98.10;;;;;;4994922;28;19913;-69
2022/09/26 10:09:23;;;;;;;24.27;10.00;;;20.20;98.10;;;;;;4989764;28;20437;-68
2022/09/26 10:11:50;;;;;;;49.08;18.23;;;20.20;98.20;;;;;;4976660;28;20035;-71
2022/09/26 10:14:40;;;;;;;17.35;9.50;;;20.30;98.20;;;;;;4991682;28;20030;-70
2022/09/26 10:17:09;;;;;;;19.38;9.77;;;20.30;98.20;;;;;;4992519;28;20038;-69
2022/09/26 10:19:39;;;;;;;54.65;20.15;;;20.30;98.20;;;;;;4994559;28;20034;-70
2022/09/26 10:22:14;;;;;;;23.90;12.35;;;20.40;98.10;;;;;;4994240;28;20030;-69
2022/09/26 10:24:40;;;;;;;24.27;10.68;;;20.50;98.10;;;;;;4994572;28;20396;-69
2022/09/26 10:27:36;;;;;;;31.13;12.13;;;20.70;98.00;;;;;;4994692;28;20018;-70
2022/09/26 10:30:27;;;;;;;35.15;13.45;;;20.80;97.90;;;;;;4992813;28;20066;-68
2022/09/26 10:32:58;;;;;;;30.63;11.65;;;20.90;97.60;;;;;;4994227;28;20057;-70
2022/09/26 10:35:51;;;;;;;26.85;11.80;;;21.10;97.40;;;;;;4993932;28;20535;-69
2022/09/26 10:38:28;;;;;;;19.92;10.57;;;21.30;97.20;;;;;;4993938;28;20046;-66
2022/09/26 10:40:58;;;;;;;29.00;14.15;;;21.50;96.70;;;;;;4994176;28;20033;-70
2022/09/26 10:43:30;;;;;;;21.63;11.30;;;21.60;96.70;;;;;;4993767;28;20089;-68
2022/09/26 10:46:05;;;;;;;16.20;7.70;;;21.80;96.30;;;;;;4993968;28;20080;-68
2022/09/26 10:48:42;;;;;;;32.65;14.70;;;21.90;95.90;;;;;;4993939;28;20128;-69
2022/09/26 10:51:08;;;;;;;23.98;10.65;;;22.10;95.80;;;;;;4993831;28;20424;-68
2022/09/26 10:53:39;;;;;;;25.17;11.18;;;22.20;95.50;;;;;;4993695;28;20022;-68
2022/09/26 10:56:10;;;;;;;23.60;10.73;;;22.30;95.30;;;;;;4993797;28;20026;-69
2022/09/26 10:58:44;;;;;;;49.22;21.02;;;22.40;95.20;;;;;;4993219;28;20344;-67
2022/09/26 11:01:20;;;;;;;;;;;22.50;95.00;;;;;;4993288;28;20472;-73
2022/09/26 11:03:47;;;;;;;19.48;8.52;;;22.50;95.00;;;;;;4993685;28;19905;-67
2022/09/26 11:06:26;;;;;;;16.75;9.02;;;22.60;94.70;;;;;;4976126;28;20026;-73
2022/09/26 11:09:01;;;;;;;20.17;10.15;;;22.80;94.50;;;;;;4993447;28;20061;-68
2022/09/26 11:11:32;;;;;;;14.48;8.70;;;22.90;94.20;;;;;;4992121;28;20031;-70
2022/09/26 11:14:06;;;;;;;17.50;9.65;;;22.90;94.10;;;;;;4992683;28;20467;-71
2022/09/26 11:16:43;;;;;;;19.23;11.02;;;22.90;94.40;;;;;;4993383;28;20135;-69
2022/09/26 11:19:32;;;;;;;22.77;10.50;;;22.90;94.50;;;;;;4993457;28;20038;-69
2022/09/26 11:22:07;;;;;;;16.23;8.80;;;22.90;94.40;;;;;;4993472;28;20094;-71
2022/09/26 11:24:36;;;;;;;16.50;8.90;;;23.00;94.40;;;;;;4989963;28;20053;-69
2022/09/26 11:27:20;;;;;;;17.88;9.02;;;23.10;94.30;;;;;;4993085;28;20037;-71
2022/09/26 11:29:57;;;;;;;14.60;7.93;;;23.20;94.10;;;;;;4993700;28;20033;-68
2022/09/26 11:32:32;;;;;;;15.48;8.40;;;23.20;94.20;;;;;;4993181;28;20472;-67
2022/09/26 11:35:02;;;;;;;15.80;7.88;;;23.20;93.90;;;;;;4992972;28;20494;-71
2022/09/26 11:38:04;;;;;;;17.48;8.10;;;23.20;93.90;;;;;;4993078;28;20403;-70
2022/09/26 11:40:58;;;;;;;11.63;5.88;;;23.30;94.00;;;;;;4993003;28;20510;-73
2022/09/26 11:43:54;;;;;;;12.93;4.68;;;23.40;93.50;;;;;;4978042;28;20037;-69
2022/09/26 11:46:56;;;;;;;9.40;4.10;;;23.50;93.00;;;;;;4992763;28;20026;-69
2022/09/26 11:49:43;;;;;;;13.60;4.32;;;23.70;92.60;;;;;;4993070;28;20041;-71
2022/09/26 11:52:36;;;;;;;10.05;4.13;;;23.90;92.10;;;;;;4992683;28;20034;-70
2022/09/26 11:55:22;;;;;;;11.35;2.78;;;24.00;91.40;;;;;;4992770;28;20034;-70
2022/09/26 11:58:07;;;;;;;6.53;2.63;;;24.00;90.80;;;;;;4992748;28;20149;-74
2022/09/26 12:01:15;;;;;;;9.23;3.03;;;24.00;90.70;;;;;;4992842;28;20125;-73
2022/09/26 12:03:56;;;;;;;7.10;2.88;;;24.00;90.80;;;;;;4992653;28;20030;-70
2022/09/26 12:06:49;;;;;;;6.97;2.45;;;23.90;90.60;;;;;;4992696;28;20041;-70
2022/09/26 12:09:33;;;;;;;6.57;3.00;;;23.90;90.50;;;;;;4992792;28;20038;-72
2022/09/26 12:12:33;;;;;;;6.72;3.20;;;23.90;90.40;;;;;;4993736;28;20376;-70
2022/09/26 12:15:01;;;;;;;7.10;3.03;;;24.00;90.30;;;;;;4997040;28;20026;-71
2022/09/26 12:17:48;;;;;;;7.10;3.10;;;24.00;89.20;;;;;;4996519;28;20022;-70
2022/09/26 12:20:33;;;;;;;6.35;2.60;;;24.00;89.30;;;;;;4979411;28;20070;-69
2022/09/26 12:23:36;;;;;;;4.95;2.38;;;24.00;88.90;;;;;;4997186;28;20026;-69
2022/09/26 12:26:28;;;;;;;5.75;2.33;;;24.10;87.60;;;;;;4996609;28;20027;-69
2022/09/26 12:29:28;;;;;;;6.05;2.63;;;24.10;85.60;;;;;;4996297;28;20045;-68
2022/09/26 12:32:16;;;;;;;7.50;3.00;;;24.10;86.30;;;;;;4996857;28;20030;-72
2022/09/26 12:34:50;;;;;;;8.32;2.92;;;24.10;85.30;;;;;;4996476;28;20065;-69
2022/09/26 12:37:57;;;;;;;12.68;4.55;;;24.20;85.10;;;;;;4996433;28;20030;-69
2022/09/26 12:40:41;;;;;;;6.15;2.50;;;24.40;85.70;;;;;;4996369;28;20383;-70
2022/09/26 12:43:20;;;;;;;4.68;2.38;;;24.50;83.80;;;;;;4995815;28;20030;-72
2022/09/26 12:46:08;;;;;;;4.85;2.33;;;24.50;82.60;;;;;;4996407;28;20054;-69
2022/09/26 12:49:23;;;;;;;7.82;2.85;;;24.50;83.40;;;;;;4996360;28;20468;-68
2022/09/26 12:52:20;;;;;;;7.38;2.30;;;24.40;82.40;;;;;;4937374;28;20125;-70
2022/09/26 12:55:03;;;;;;;6.18;2.42;;;24.30;83.30;;;;;;4996121;28;20054;-70
2022/09/26 12:57:37;;;;;;;6.07;2.85;;;24.20;83.40;;;;;;4996535;28;20039;-69
2022/09/26 13:00:38;;;;;;;13.10;3.97;;;24.10;82.80;;;;;;4986325;28;20030;-71
2022/09/26 13:03:31;;;;;;;5.80;2.20;;;24.00;83.80;;;;;;4996682;28;20019;-73
2022/09/26 13:06:26;;;;;;;12.70;3.80;;;23.90;84.20;;;;;;4996141;28;20073;-72
2022/09/26 13:09:30;;;;;;;15.43;4.25;;;23.70;84.10;;;;;;4994796;28;20077;-72
2022/09/26 13:11:56;;;;;;;16.33;4.90;;;23.60;83.10;;;;;;4958544;28;20036;-70
2022/09/26 13:14:59;;;;;;;11.90;4.20;;;23.70;83.30;;;;;;4975161;28;20146;-70
2022/09/26 13:17:35;;;;;;;11.00;3.78;;;23.80;83.50;;;;;;4995680;28;20510;-70
2022/09/26 13:20:17;;;;;;;12.20;3.53;;;23.80;82.90;;;;;;4992501;28;20483;-69
2022/09/26 13:22:58;;;;;;;7.07;2.13;;;23.80;82.00;;;;;;4992318;28;20038;-70
2022/09/26 13:25:45;;;;;;;7.28;3.17;;;23.80;83.10;;;;;;4983454;28;20444;-69